createdAt,value
2018-03-07T00:00:10.587Z,199.82
2018-03-07T00:00:44.103Z,175.38
2018-03-07T00:01:17.778Z,186.68
2018-03-07T00:01:51.470Z,182.02
2018-03-07T00:02:25.166Z,182.85
2018-03-07T00:02:58.851Z,195.32
2018-03-07T00:03:32.564Z,176.98
2018-03-07T00:04:06.250Z,177.35
2018-03-07T00:04:39.939Z,171.43
2018-03-07T00:05:13.631Z,177.65
2018-03-07T00:05:47.309Z,177.45
2018-03-07T00:06:20.994Z,189.32
2018-03-07T00:06:54.677Z,184.70
2018-03-07T00:07:28.366Z,174.68
2018-03-07T00:08:02.034Z,187.07
2018-03-07T00:08:35.732Z,186.70
2018-03-07T00:09:09.414Z,179.80
2018-03-07T00:09:43.850Z,180.85
2018-03-07T00:10:17.534Z,188.30
2018-03-07T00:10:51.197Z,182.60
2018-03-07T00:11:24.888Z,170.27
2018-03-07T00:11:58.579Z,189.87
2018-03-07T00:12:33.020Z,182.62
2018-03-07T00:13:06.696Z,179.50
2018-03-07T00:13:40.775Z,177.93
2018-03-07T00:14:15.223Z,178.93
2018-03-07T00:14:48.981Z,183.95
2018-03-07T00:15:22.811Z,178.93
2018-03-07T00:15:56.497Z,181.25
2018-03-07T00:16:30.171Z,183.02
2018-03-07T00:17:03.856Z,187.50
2018-03-07T00:17:37.530Z,186.43
2018-03-07T00:18:11.227Z,188.52
2018-03-07T00:18:44.960Z,183.37
2018-03-07T00:19:18.633Z,179.32
2018-03-07T00:19:52.310Z,178.20
2018-03-07T00:20:25.995Z,181.37
2018-03-07T00:20:59.666Z,191.32
2018-03-07T00:21:33.354Z,184.60
2018-03-07T00:22:07.450Z,182.48
2018-03-07T00:22:41.241Z,193.25
2018-03-07T00:23:15.691Z,189.68
2018-03-07T00:23:49.437Z,183.30
2018-03-07T00:24:23.903Z,181.50
2018-03-07T00:24:57.590Z,177.18
2018-03-07T00:25:31.271Z,183.73
2018-03-07T00:26:04.960Z,184.20
2018-03-07T00:26:38.640Z,179.70
2018-03-07T00:27:12.302Z,179.48
2018-03-07T00:27:46.735Z,180.02
2018-03-07T00:28:20.402Z,177.20
2018-03-07T00:28:54.861Z,186.02
2018-03-07T00:29:28.540Z,175.52
2018-03-07T00:30:02.223Z,179.93
2018-03-07T00:30:35.911Z,178.30
2018-03-07T00:31:09.626Z,185.45
2018-03-07T00:31:43.301Z,183.20
2018-03-07T00:32:17.028Z,184.77
2018-03-07T00:32:50.690Z,176.85
2018-03-07T00:33:24.369Z,182.88
2018-03-07T00:33:58.074Z,173.10
2018-03-07T00:34:31.759Z,181.50
2018-03-07T00:35:05.439Z,178.40
2018-03-07T00:35:39.299Z,173.77
2018-03-07T00:36:13.005Z,184.27
2018-03-07T00:36:46.677Z,177.98
2018-03-07T00:37:20.043Z,171.32
2018-03-07T00:37:54.478Z,178.90
2018-03-07T00:38:28.159Z,177.23
2018-03-07T00:39:01.857Z,194.32
2018-03-07T00:39:35.541Z,182.70
2018-03-07T00:40:09.230Z,176.25
2018-03-07T00:40:42.899Z,175.55
2018-03-07T00:41:17.154Z,177.93
2018-03-07T00:41:50.847Z,174.43
2018-03-07T00:42:24.536Z,174.48
2018-03-07T00:42:58.218Z,190.52
2018-03-07T00:43:31.892Z,182.05
2018-03-07T00:44:05.609Z,174.40
2018-03-07T00:44:39.297Z,188.12
2018-03-07T00:45:12.976Z,188.30
2018-03-07T00:45:46.666Z,178.70
2018-03-07T00:46:20.345Z,182.07
2018-03-07T00:46:54.027Z,174.70
2018-03-07T00:47:27.700Z,183.57
2018-03-07T00:48:01.374Z,187.35
2018-03-07T00:48:35.044Z,180.02
2018-03-07T00:49:08.742Z,185.02
2018-03-07T00:49:42.428Z,175.43
2018-03-07T00:50:16.098Z,193.82
2018-03-07T00:50:49.772Z,200.00
2018-03-07T00:51:23.444Z,174.57
2018-03-07T00:51:57.108Z,183.07
2018-03-07T00:52:31.561Z,190.48
2018-03-07T00:53:04.929Z,190.60
2018-03-07T00:53:38.605Z,182.60
2018-03-07T00:54:12.295Z,181.95
2018-03-07T00:54:45.979Z,187.45
2018-03-07T00:55:20.429Z,181.25
2018-03-07T00:55:54.119Z,181.20
2018-03-07T00:56:27.799Z,177.77
2018-03-07T00:57:01.485Z,189.82
2018-03-07T00:57:35.156Z,186.98
2018-03-07T00:58:08.829Z,181.30
2018-03-07T00:58:43.274Z,184.02
2018-03-07T00:59:16.961Z,180.25
2018-03-07T00:59:50.655Z,198.68
2018-03-07T01:00:24.337Z,188.55
2018-03-07T01:00:58.038Z,175.20
2018-03-07T01:01:31.729Z,189.60
2018-03-07T01:02:05.410Z,182.57
2018-03-07T01:02:39.069Z,178.52
2018-03-07T01:03:13.503Z,179.75
2018-03-07T01:03:47.168Z,178.73
2018-03-07T01:04:21.625Z,176.45
2018-03-07T01:04:55.310Z,183.18
2018-03-07T01:05:28.987Z,182.82
2018-03-07T01:06:02.673Z,172.65
2018-03-07T01:06:36.360Z,186.10
2018-03-07T01:07:10.035Z,181.73
2018-03-07T01:07:43.710Z,196.80
2018-03-07T01:08:18.150Z,184.77
2018-03-07T01:08:51.822Z,177.87
2018-03-07T01:09:25.534Z,194.20
2018-03-07T01:09:59.215Z,187.10
2018-03-07T01:10:32.887Z,188.32
2018-03-07T01:11:06.571Z,188.07
2018-03-07T01:11:40.285Z,174.48
2018-03-07T01:12:13.958Z,189.95
2018-03-07T01:12:47.299Z,177.43
2018-03-07T01:13:20.968Z,179.07
2018-03-07T01:13:54.647Z,187.37
2018-03-07T01:14:28.336Z,184.35
2018-03-07T01:15:02.024Z,171.73
2018-03-07T01:15:35.711Z,188.62
2018-03-07T01:16:09.372Z,176.37
2018-03-07T01:16:43.044Z,184.98
2018-03-07T01:17:16.706Z,179.05
2018-03-07T01:17:50.393Z,174.95
2018-03-07T01:18:24.065Z,180.80
2018-03-07T01:18:57.734Z,179.43
2018-03-07T01:19:31.442Z,172.82
2018-03-07T01:20:05.112Z,175.57
2018-03-07T01:20:38.801Z,177.73
2018-03-07T01:21:12.477Z,176.18
2018-03-07T01:21:46.166Z,184.63
2018-03-07T01:22:20.617Z,182.48
2018-03-07T01:22:54.295Z,175.43
2018-03-07T01:23:27.971Z,172.65
2018-03-07T01:24:01.659Z,187.93
2018-03-07T01:24:35.365Z,173.62
2018-03-07T01:25:09.025Z,178.87
2018-03-07T01:25:43.462Z,176.45
2018-03-07T01:26:17.122Z,181.02
2018-03-07T01:26:50.811Z,176.85
2018-03-07T01:27:24.498Z,171.75
2018-03-07T01:27:58.942Z,183.35
2018-03-07T01:28:32.655Z,180.27
2018-03-07T01:29:06.344Z,176.73
2018-03-07T01:29:40.395Z,174.62
2018-03-07T01:30:14.074Z,170.15
2018-03-07T01:30:47.838Z,174.55
2018-03-07T01:31:21.514Z,167.37
2018-03-07T01:31:55.195Z,174.48
2018-03-07T01:32:28.865Z,179.23
2018-03-07T01:33:02.538Z,174.57
2018-03-07T01:33:36.222Z,182.52
2018-03-07T01:34:09.905Z,175.85
2018-03-07T01:34:43.909Z,170.45
2018-03-07T01:35:17.587Z,188.57
2018-03-07T01:35:52.031Z,177.68
2018-03-07T01:36:25.703Z,169.15
2018-03-07T01:36:59.385Z,177.45
2018-03-07T01:37:33.074Z,186.23
2018-03-07T01:38:06.764Z,169.32
2018-03-07T01:38:40.453Z,170.68
2018-03-07T01:39:14.162Z,169.32
2018-03-07T01:39:48.183Z,184.50
2018-03-07T01:40:21.875Z,182.55
2018-03-07T01:40:55.362Z,184.63
2018-03-07T01:41:29.032Z,189.15
2018-03-07T01:42:02.722Z,180.65
2018-03-07T01:42:36.390Z,169.48
2018-03-07T01:43:10.072Z,174.23
2018-03-07T01:43:43.761Z,194.70
2018-03-07T01:44:17.436Z,169.05
2018-03-07T01:44:51.911Z,177.57
2018-03-07T01:45:25.594Z,165.57
2018-03-07T01:45:59.282Z,178.30
2018-03-07T01:46:32.971Z,168.20
2018-03-07T01:47:06.644Z,181.50
2018-03-07T01:47:40.330Z,173.70
2018-03-07T01:48:14.044Z,185.12
2018-03-07T01:48:47.750Z,178.68
2018-03-07T01:49:21.424Z,178.55
2018-03-07T01:49:55.135Z,170.30
2018-03-07T01:50:28.807Z,174.57
2018-03-07T01:51:02.490Z,180.60
2018-03-07T01:51:47.447Z,180.48
2018-03-07T01:52:21.154Z,170.07
2018-03-07T01:52:54.842Z,174.10
2018-03-07T01:53:28.559Z,172.80
2018-03-07T01:54:03.024Z,178.30
2018-03-07T01:54:36.526Z,175.40
2018-03-07T01:55:10.242Z,165.93
2018-03-07T01:55:44.696Z,169.55
2018-03-07T01:56:18.375Z,179.80
2018-03-07T01:56:52.357Z,168.65
2018-03-07T01:57:26.046Z,171.93
2018-03-07T01:57:59.723Z,187.48
2018-03-07T01:58:34.177Z,172.32
2018-03-07T01:59:07.874Z,175.23
2018-03-07T01:59:41.560Z,176.35
2018-03-07T02:00:15.256Z,165.98
2018-03-07T02:00:48.939Z,172.37
2018-03-07T02:01:22.630Z,176.07
2018-03-07T02:01:56.324Z,182.37
2018-03-07T02:02:29.701Z,176.55
2018-03-07T02:03:03.390Z,174.12
2018-03-07T02:03:37.080Z,169.90
2018-03-07T02:04:10.769Z,173.27
2018-03-07T02:04:44.458Z,174.68
2018-03-07T02:05:18.160Z,171.35
2018-03-07T02:05:51.840Z,180.52
2018-03-07T02:06:25.528Z,182.15
2018-03-07T02:06:59.216Z,181.95
2018-03-07T02:07:32.909Z,178.60
2018-03-07T02:08:06.297Z,173.75
2018-03-07T02:08:40.134Z,165.35
2018-03-07T02:09:14.590Z,171.10
2018-03-07T02:09:48.281Z,173.62
2018-03-07T02:10:21.985Z,162.80
2018-03-07T02:10:55.664Z,180.32
2018-03-07T02:11:29.348Z,175.45
2018-03-07T02:12:03.039Z,179.00
2018-03-07T02:12:36.705Z,176.20
2018-03-07T02:13:10.385Z,171.70
2018-03-07T02:13:44.058Z,170.90
2018-03-07T02:14:18.518Z,181.10
2018-03-07T02:14:52.204Z,170.90
2018-03-07T02:15:25.911Z,179.15
2018-03-07T02:15:59.612Z,168.18
2018-03-07T02:16:33.291Z,174.40
2018-03-07T02:17:06.981Z,170.55
2018-03-07T02:17:40.666Z,177.80
2018-03-07T02:18:14.347Z,169.93
2018-03-07T02:18:48.038Z,182.90
2018-03-07T02:19:21.713Z,184.98
2018-03-07T02:19:55.389Z,175.23
2018-03-07T02:20:29.079Z,159.00
2018-03-07T02:21:02.773Z,173.07
2018-03-07T02:21:36.481Z,170.80
2018-03-07T02:22:10.166Z,184.00
2018-03-07T02:22:43.507Z,172.62
2018-03-07T02:23:17.960Z,167.52
2018-03-07T02:23:51.648Z,170.68
2018-03-07T02:24:25.317Z,181.15
2018-03-07T02:24:58.990Z,173.32
2018-03-07T02:25:33.463Z,181.52
2018-03-07T02:26:07.185Z,174.32
2018-03-07T02:26:41.623Z,181.75
2018-03-07T02:27:15.310Z,161.07
2018-03-07T02:27:48.992Z,171.23
2018-03-07T02:28:22.667Z,166.68
2018-03-07T02:28:56.348Z,172.15
2018-03-07T02:29:30.799Z,184.10
2018-03-07T02:30:04.478Z,172.87
2018-03-07T02:30:38.191Z,170.87
2018-03-07T02:31:11.875Z,170.20
2018-03-07T02:31:45.582Z,170.57
2018-03-07T02:32:19.268Z,170.02
2018-03-07T02:32:52.948Z,168.93
2018-03-07T02:33:26.619Z,171.35
2018-03-07T02:34:00.306Z,172.85
2018-03-07T02:34:33.994Z,168.10
2018-03-07T02:35:07.661Z,159.50
2018-03-07T02:35:42.129Z,171.40
2018-03-07T02:36:27.170Z,168.60
2018-03-07T02:37:00.855Z,175.75
2018-03-07T02:37:34.527Z,165.80
2018-03-07T02:38:08.214Z,176.10
2018-03-07T02:38:41.906Z,174.00
2018-03-07T02:39:15.598Z,170.12
2018-03-07T02:39:49.285Z,161.00
2018-03-07T02:40:22.979Z,168.40
2018-03-07T02:40:56.688Z,168.48
2018-03-07T02:41:30.367Z,163.65
2018-03-07T02:42:04.054Z,171.48
2018-03-07T02:42:37.735Z,170.95
2018-03-07T02:43:11.410Z,180.63
2018-03-07T02:43:45.093Z,169.07
2018-03-07T02:44:19.664Z,189.52
2018-03-07T02:44:53.350Z,174.93
2018-03-07T02:45:27.027Z,166.90
2018-03-07T02:46:00.749Z,178.85
2018-03-07T02:46:34.447Z,167.20
2018-03-07T02:47:08.914Z,171.90
2018-03-07T02:47:42.618Z,180.93
2018-03-07T02:48:16.299Z,182.48
2018-03-07T02:48:49.962Z,178.30
2018-03-07T02:49:23.652Z,174.62
2018-03-07T02:49:57.334Z,179.80
2018-03-07T02:50:31.018Z,179.23
2018-03-07T02:51:05.039Z,176.98
2018-03-07T02:51:38.735Z,186.45
2018-03-07T02:52:12.404Z,177.15
2018-03-07T02:52:46.082Z,177.07
2018-03-07T02:53:20.730Z,175.48
2018-03-07T02:53:54.410Z,169.87
2018-03-07T02:54:28.098Z,175.50
2018-03-07T02:55:01.786Z,175.10
2018-03-07T02:55:35.480Z,184.40
2018-03-07T02:56:09.186Z,178.65
2018-03-07T02:56:42.870Z,177.18
2018-03-07T02:57:16.535Z,173.95
2018-03-07T02:57:50.203Z,177.65
2018-03-07T02:58:24.648Z,175.45
2018-03-07T02:58:58.322Z,173.15
2018-03-07T02:59:32.010Z,183.68
2018-03-07T03:00:05.018Z,184.32
2018-03-07T03:00:38.703Z,189.50
2018-03-07T03:01:12.760Z,180.50
2018-03-07T03:01:47.221Z,180.50
2018-03-07T03:02:20.900Z,175.30
2018-03-07T03:02:54.594Z,181.93
2018-03-07T03:03:28.278Z,174.95
2018-03-07T03:04:01.939Z,179.00
2018-03-07T03:04:35.619Z,175.95
2018-03-07T03:05:09.299Z,190.75
2018-03-07T03:05:43.755Z,167.32
2018-03-07T03:06:17.821Z,173.95
2018-03-07T03:06:51.491Z,182.50
2018-03-07T03:07:25.922Z,176.00
2018-03-07T03:07:59.643Z,179.02
2018-03-07T03:08:33.331Z,182.60
2018-03-07T03:09:07.019Z,186.93
2018-03-07T03:09:40.723Z,184.98
2018-03-07T03:10:14.398Z,189.15
2018-03-07T03:10:47.749Z,177.82
2018-03-07T03:11:21.443Z,175.55
2018-03-07T03:11:55.108Z,179.45
2018-03-07T03:12:29.572Z,183.27
2018-03-07T03:13:03.258Z,189.95
2018-03-07T03:13:36.948Z,188.35
2018-03-07T03:14:10.823Z,183.73
2018-03-07T03:14:44.518Z,186.37
2018-03-07T03:15:18.190Z,187.70
2018-03-07T03:15:51.880Z,185.45
2018-03-07T03:16:25.263Z,182.20
2018-03-07T03:16:59.698Z,180.55
2018-03-07T03:17:33.411Z,182.85
2018-03-07T03:18:07.082Z,183.73
2018-03-07T03:18:40.762Z,183.95
2018-03-07T03:19:14.431Z,198.43
2018-03-07T03:19:48.106Z,183.07
2018-03-07T03:20:22.554Z,176.10
2018-03-07T03:20:56.244Z,188.55
2018-03-07T03:21:29.940Z,195.68
2018-03-07T03:22:03.989Z,173.32
2018-03-07T03:22:38.461Z,189.27
2018-03-07T03:23:12.130Z,175.00
2018-03-07T03:23:45.811Z,183.77
2018-03-07T03:24:19.481Z,184.35
2018-03-07T03:24:53.920Z,180.20
2018-03-07T03:25:27.606Z,181.07
2018-03-07T03:26:01.287Z,189.57
2018-03-07T03:26:35.359Z,188.45
2018-03-07T03:27:09.802Z,181.57
2018-03-07T03:27:43.491Z,194.27
2018-03-07T03:28:17.182Z,195.23
2018-03-07T03:28:50.872Z,199.35
2018-03-07T03:29:24.562Z,191.40
2018-03-07T03:29:58.254Z,184.77
2018-03-07T03:30:31.940Z,189.68
2018-03-07T03:31:05.314Z,187.57
2018-03-07T03:31:39.389Z,190.55
2018-03-07T03:32:13.175Z,196.45
2018-03-07T03:32:47.622Z,200.10
2018-03-07T03:33:21.315Z,196.10
2018-03-07T03:33:55.001Z,204.02
2018-03-07T03:34:28.690Z,187.43
2018-03-07T03:35:02.373Z,202.00
2018-03-07T03:35:36.051Z,193.50
2018-03-07T03:36:09.748Z,186.43
2018-03-07T03:36:43.711Z,195.80
2018-03-07T03:37:18.165Z,182.12
2018-03-07T03:37:52.022Z,186.93
2018-03-07T03:38:26.463Z,190.40
2018-03-07T03:39:00.155Z,184.35
2018-03-07T03:39:33.841Z,197.32
2018-03-07T03:40:07.532Z,184.50
2018-03-07T03:40:41.215Z,185.10
2018-03-07T03:41:14.915Z,191.20
2018-03-07T03:41:48.633Z,204.55
2018-03-07T03:42:23.073Z,193.57
2018-03-07T03:42:57.509Z,190.85
2018-03-07T03:43:31.196Z,186.02
2018-03-07T03:44:04.963Z,180.43
2018-03-07T03:44:39.065Z,193.23
2018-03-07T03:45:13.499Z,189.05
2018-03-07T03:45:47.214Z,189.52
2018-03-07T03:46:21.155Z,189.07
2018-03-07T03:46:55.969Z,188.40
2018-03-07T03:47:29.660Z,191.57
2018-03-07T03:48:04.106Z,200.90
2018-03-07T03:48:37.790Z,192.57
2018-03-07T03:49:11.473Z,195.85
2018-03-07T03:49:45.163Z,193.07
2018-03-07T03:50:18.850Z,187.80
2018-03-07T03:50:52.531Z,192.23
2018-03-07T03:51:26.974Z,192.73
2018-03-07T03:52:01.052Z,195.80
2018-03-07T03:52:34.742Z,193.87
2018-03-07T03:53:08.469Z,207.10
2018-03-07T03:53:45.371Z,196.07
2018-03-07T03:54:19.814Z,202.02
2018-03-07T03:54:53.157Z,201.73
2018-03-07T03:55:27.602Z,203.52
2018-03-07T03:56:01.291Z,198.55
2018-03-07T03:56:34.979Z,196.55
2018-03-07T03:57:09.054Z,202.50
2018-03-07T03:57:43.521Z,203.18
2018-03-07T03:58:17.212Z,215.00
2018-03-07T03:58:50.901Z,198.55
2018-03-07T03:59:24.585Z,205.50
2018-03-07T03:59:58.280Z,202.05
2018-03-07T04:00:31.966Z,200.68
2018-03-07T04:01:05.323Z,205.57
2018-03-07T04:01:39.005Z,210.70
2018-03-07T04:02:12.697Z,190.02
2018-03-07T04:02:46.375Z,205.40
2018-03-07T04:03:20.070Z,206.00
2018-03-07T04:03:53.738Z,217.43
2018-03-07T04:04:28.171Z,212.05
2018-03-07T04:05:01.880Z,210.55
2018-03-07T04:05:35.725Z,220.15
2018-03-07T04:06:10.177Z,221.07
2018-03-07T04:06:43.863Z,205.93
2018-03-07T04:07:17.571Z,223.98
2018-03-07T04:07:51.258Z,221.32
2018-03-07T04:08:24.933Z,212.12
2018-03-07T04:08:58.621Z,209.35
2018-03-07T04:09:32.291Z,223.25
2018-03-07T04:10:05.308Z,229.30
2018-03-07T04:10:38.999Z,229.30
2018-03-07T04:11:12.673Z,222.75
2018-03-07T04:11:46.341Z,224.77
2018-03-07T04:12:20.059Z,224.30
2018-03-07T04:12:53.747Z,241.52
2018-03-07T04:13:27.448Z,223.85
2018-03-07T04:14:01.130Z,229.68
2018-03-07T04:14:34.819Z,224.68
2018-03-07T04:15:08.510Z,232.57
2018-03-07T04:15:42.211Z,224.48
2018-03-07T04:16:15.889Z,237.63
2018-03-07T04:16:49.642Z,237.73
2018-03-07T04:17:23.355Z,244.35
2018-03-07T04:17:57.027Z,233.60
2018-03-07T04:18:30.711Z,233.15
2018-03-07T04:19:05.154Z,227.57
2018-03-07T04:19:38.830Z,223.35
2018-03-07T04:20:14.974Z,235.40
2018-03-07T04:20:48.862Z,246.18
2018-03-07T04:21:22.545Z,237.85
2018-03-07T04:21:56.234Z,238.20
2018-03-07T04:22:30.199Z,238.12
2018-03-07T04:23:04.682Z,243.50
2018-03-07T04:23:38.365Z,239.50
2018-03-07T04:24:12.253Z,259.05
2018-03-07T04:24:45.938Z,240.80
2018-03-07T04:25:19.634Z,247.57
2018-03-07T04:25:53.298Z,232.43
2018-03-07T04:26:26.973Z,271.05
2018-03-07T04:27:01.423Z,236.00
2018-03-07T04:27:35.135Z,246.27
2018-03-07T04:28:08.826Z,245.63
2018-03-07T04:28:42.522Z,242.45
2018-03-07T04:29:16.217Z,238.10
2018-03-07T04:29:49.930Z,248.13
2018-03-07T04:30:24.386Z,250.23
2018-03-07T04:30:58.071Z,258.30
2018-03-07T04:31:31.757Z,255.57
2018-03-07T04:32:05.450Z,265.98
2018-03-07T04:32:39.170Z,256.90
2018-03-07T04:33:12.952Z,254.98
2018-03-07T04:33:46.642Z,248.48
2018-03-07T04:34:20.342Z,245.90
2018-03-07T04:34:54.059Z,249.43
2018-03-07T04:35:28.510Z,236.25
2018-03-07T04:36:02.198Z,257.87
2018-03-07T04:36:35.887Z,252.40
2018-03-07T04:37:09.561Z,227.02
2018-03-07T04:37:43.278Z,247.12
2018-03-07T04:38:16.983Z,231.40
2018-03-07T04:38:50.677Z,256.05
2018-03-07T04:39:24.373Z,266.40
2018-03-07T04:39:58.066Z,261.12
2018-03-07T04:40:31.748Z,247.80
2018-03-07T04:41:05.432Z,245.98
2018-03-07T04:41:39.113Z,249.18
2018-03-07T04:42:12.799Z,260.00
2018-03-07T04:42:46.518Z,256.33
2018-03-07T04:43:20.202Z,245.68
2018-03-07T04:43:53.881Z,252.00
2018-03-07T04:44:27.545Z,257.10
2018-03-07T04:45:01.235Z,246.50
2018-03-07T04:45:34.926Z,256.23
2018-03-07T04:46:08.641Z,263.67
2018-03-07T04:46:42.330Z,268.20
2018-03-07T04:47:16.020Z,273.05
2018-03-07T04:47:49.718Z,245.48
2018-03-07T04:48:23.395Z,250.98
2018-03-07T04:48:57.080Z,250.62
2018-03-07T04:49:30.774Z,270.98
2018-03-07T04:50:04.466Z,261.25
2018-03-07T04:50:38.157Z,259.40
2018-03-07T04:51:11.847Z,259.02
2018-03-07T04:51:45.530Z,259.87
2018-03-07T04:52:19.038Z,259.45
2018-03-07T04:52:52.758Z,258.33
2018-03-07T04:53:26.438Z,255.30
2018-03-07T04:54:00.910Z,268.27
2018-03-07T04:54:34.582Z,256.90
2018-03-07T04:55:08.273Z,257.58
2018-03-07T04:55:41.979Z,253.88
2018-03-07T04:56:15.688Z,253.05
2018-03-07T04:56:49.378Z,251.48
2018-03-07T04:57:23.063Z,268.45
2018-03-07T04:57:56.773Z,257.62
2018-03-07T04:58:31.249Z,247.93
2018-03-07T04:59:04.938Z,260.50
2018-03-07T04:59:38.637Z,255.48
2018-03-07T05:00:12.352Z,269.02
2018-03-07T05:00:46.810Z,268.02
2018-03-07T05:01:20.490Z,260.02
2018-03-07T05:01:54.207Z,259.37
2018-03-07T05:02:27.884Z,251.85
2018-03-07T05:03:01.977Z,244.45
2018-03-07T05:03:35.670Z,245.40
2018-03-07T05:04:09.358Z,243.63
2018-03-07T05:04:43.046Z,263.30
2018-03-07T05:05:16.743Z,252.13
2018-03-07T05:05:50.493Z,245.70
2018-03-07T05:06:24.934Z,249.80
2018-03-07T05:06:58.627Z,240.37
2018-03-07T05:07:32.316Z,228.73
2018-03-07T05:08:06.019Z,241.32
2018-03-07T05:08:39.721Z,246.13
2018-03-07T05:09:13.405Z,260.92
2018-03-07T05:09:47.130Z,234.60
2018-03-07T05:10:21.608Z,233.82
2018-03-07T05:10:55.284Z,258.55
2018-03-07T05:11:28.968Z,244.57
2018-03-07T05:12:02.680Z,228.20
2018-03-07T05:12:36.356Z,236.57
2018-03-07T05:13:10.065Z,261.45
2018-03-07T05:13:43.940Z,244.68
2018-03-07T05:14:17.626Z,223.15
2018-03-07T05:14:51.331Z,231.85
2018-03-07T05:15:25.019Z,230.45
2018-03-07T05:15:58.698Z,234.05
2018-03-07T05:16:32.374Z,248.07
2018-03-07T05:17:06.058Z,232.60
2018-03-07T05:17:39.744Z,234.52
2018-03-07T05:18:13.481Z,251.85
2018-03-07T05:18:47.205Z,232.87
2018-03-07T05:19:21.038Z,226.35
2018-03-07T05:19:54.732Z,234.90
2018-03-07T05:20:28.420Z,229.60
2018-03-07T05:21:02.120Z,226.85
2018-03-07T05:21:35.798Z,247.55
2018-03-07T05:22:09.512Z,239.70
2018-03-07T05:22:43.955Z,234.85
2018-03-07T05:23:18.420Z,238.35
2018-03-07T05:23:52.095Z,248.57
2018-03-07T05:24:25.815Z,235.52
2018-03-07T05:24:59.664Z,230.95
2018-03-07T05:25:33.331Z,229.90
2018-03-07T05:26:07.783Z,244.60
2018-03-07T05:26:41.474Z,233.93
2018-03-07T05:27:15.143Z,231.05
2018-03-07T05:27:48.492Z,243.32
2018-03-07T05:28:23.321Z,232.75
2018-03-07T05:28:57.768Z,238.73
2018-03-07T05:29:31.445Z,227.65
2018-03-07T05:30:04.563Z,238.03
2018-03-07T05:30:38.408Z,225.35
2018-03-07T05:31:12.108Z,216.63
2018-03-07T05:31:45.817Z,221.07
2018-03-07T05:32:19.537Z,230.10
2018-03-07T05:32:53.986Z,241.45
2018-03-07T05:33:27.692Z,213.87
2018-03-07T05:34:01.384Z,226.40
2018-03-07T05:34:35.062Z,234.68
2018-03-07T05:35:08.407Z,226.43
2018-03-07T05:35:42.126Z,226.12
2018-03-07T05:36:15.479Z,226.95
2018-03-07T05:36:49.984Z,228.18
2018-03-07T05:37:23.818Z,215.73
2018-03-07T05:37:57.520Z,231.43
2018-03-07T05:38:31.244Z,229.98
2018-03-07T05:39:05.766Z,236.30
2018-03-07T05:39:40.228Z,232.12
2018-03-07T05:40:13.894Z,214.00
2018-03-07T05:40:47.590Z,239.20
2018-03-07T05:41:21.281Z,221.20
2018-03-07T05:41:54.983Z,221.62
2018-03-07T05:42:28.656Z,211.45
2018-03-07T05:43:02.343Z,220.68
2018-03-07T05:43:36.063Z,231.45
2018-03-07T05:44:09.774Z,214.15
2018-03-07T05:44:43.468Z,229.73
2018-03-07T05:45:17.161Z,211.82
2018-03-07T05:45:50.539Z,213.57
2018-03-07T05:46:24.230Z,217.23
2018-03-07T05:46:57.918Z,220.07
2018-03-07T05:47:31.667Z,218.43
2018-03-07T05:48:05.368Z,205.68
2018-03-07T05:48:39.414Z,210.18
2018-03-07T05:49:13.851Z,226.43
2018-03-07T05:49:47.538Z,224.93
2018-03-07T05:50:21.229Z,221.07
2018-03-07T05:50:54.910Z,230.27
2018-03-07T05:51:28.406Z,207.40
2018-03-07T05:52:02.087Z,211.15
2018-03-07T05:52:35.783Z,221.60
2018-03-07T05:53:09.443Z,204.68
2018-03-07T05:53:43.935Z,217.45
2018-03-07T05:54:17.644Z,216.73
2018-03-07T05:54:52.102Z,204.15
2018-03-07T05:55:25.798Z,204.10
2018-03-07T05:55:59.486Z,205.73
2018-03-07T05:56:33.169Z,208.87
2018-03-07T05:57:06.948Z,212.80
2018-03-07T05:57:40.630Z,207.35
2018-03-07T05:58:14.293Z,203.55
2018-03-07T05:58:48.779Z,203.98
2018-03-07T05:59:22.454Z,205.85
2018-03-07T05:59:56.139Z,209.57
2018-03-07T06:00:29.818Z,216.02
2018-03-07T06:01:03.177Z,204.38
2018-03-07T06:01:36.865Z,204.68
2018-03-07T06:02:10.545Z,210.27
2018-03-07T06:02:44.987Z,210.85
2018-03-07T06:03:18.327Z,197.82
2018-03-07T06:03:52.786Z,213.00
2018-03-07T06:04:26.461Z,199.32
2018-03-07T06:05:00.147Z,191.27
2018-03-07T06:05:33.825Z,189.37
2018-03-07T06:06:07.514Z,192.05
2018-03-07T06:06:41.200Z,200.48
2018-03-07T06:07:14.881Z,195.73
2018-03-07T06:07:48.571Z,191.77
2018-03-07T06:08:23.019Z,203.60
2018-03-07T06:08:56.739Z,195.35
2018-03-07T06:09:31.985Z,205.77
2018-03-07T06:10:06.103Z,182.18
2018-03-07T06:10:39.790Z,190.25
2018-03-07T06:11:13.481Z,201.18
2018-03-07T06:11:47.168Z,192.52
2018-03-07T06:12:21.609Z,202.30
2018-03-07T06:12:55.288Z,193.27
2018-03-07T06:13:28.978Z,200.80
2018-03-07T06:14:02.678Z,189.93
2018-03-07T06:14:36.369Z,188.77
2018-03-07T06:15:10.060Z,186.15
2018-03-07T06:15:43.746Z,188.52
2018-03-07T06:16:17.436Z,195.85
2018-03-07T06:16:51.128Z,176.45
2018-03-07T06:17:24.846Z,188.73
2018-03-07T06:17:58.536Z,190.40
2018-03-07T06:18:32.234Z,193.73
2018-03-07T06:19:05.959Z,190.77
2018-03-07T06:19:39.661Z,193.52
2018-03-07T06:20:13.346Z,185.68
2018-03-07T06:20:47.018Z,186.20
2018-03-07T06:21:21.469Z,184.15
2018-03-07T06:21:55.140Z,186.93
2018-03-07T06:22:28.814Z,205.05
2018-03-07T06:23:03.254Z,183.50
2018-03-07T06:23:36.944Z,197.02
2018-03-07T06:24:10.587Z,188.23
2018-03-07T06:24:45.062Z,189.27
2018-03-07T06:25:18.732Z,184.70
2018-03-07T06:25:52.418Z,188.05
2018-03-07T06:26:26.127Z,186.88
2018-03-07T06:26:59.800Z,180.98
2018-03-07T06:27:33.493Z,170.40
2018-03-07T06:28:07.172Z,182.52
2018-03-07T06:28:40.834Z,186.48
2018-03-07T06:29:14.588Z,174.98
2018-03-07T06:29:48.339Z,178.45
2018-03-07T06:30:22.007Z,183.57
2018-03-07T06:30:55.687Z,184.35
2018-03-07T06:31:29.939Z,186.82
2018-03-07T06:32:03.623Z,193.02
2018-03-07T06:32:37.329Z,173.27
2018-03-07T06:33:11.021Z,187.93
2018-03-07T06:33:44.751Z,188.50
2018-03-07T06:34:19.258Z,181.10
2018-03-07T06:34:53.704Z,191.32
2018-03-07T06:35:27.355Z,182.23
2018-03-07T06:36:01.826Z,186.32
2018-03-07T06:36:35.500Z,186.57
2018-03-07T06:37:09.205Z,183.32
2018-03-07T06:37:42.893Z,176.52
2018-03-07T06:38:16.580Z,182.30
2018-03-07T06:38:50.259Z,180.48
2018-03-07T06:39:23.974Z,176.50
2018-03-07T06:39:57.465Z,176.23
2018-03-07T06:40:31.156Z,176.05
2018-03-07T06:41:04.855Z,180.12
2018-03-07T06:41:40.051Z,180.43
2018-03-07T06:42:13.742Z,177.15
2018-03-07T06:42:47.419Z,184.52
2018-03-07T06:43:21.111Z,173.05
2018-03-07T06:43:54.789Z,183.23
2018-03-07T06:44:28.502Z,186.27
2018-03-07T06:45:02.189Z,177.68
2018-03-07T06:45:35.862Z,173.93
2018-03-07T06:46:09.548Z,176.98
2018-03-07T06:46:43.227Z,179.27
2018-03-07T06:47:16.902Z,176.20
2018-03-07T06:47:51.337Z,188.20
2018-03-07T06:48:25.866Z,176.77
2018-03-07T06:48:59.554Z,187.18
2018-03-07T06:49:33.288Z,174.57
2018-03-07T06:50:07.734Z,180.65
2018-03-07T06:50:41.417Z,167.43
2018-03-07T06:51:15.095Z,181.00
2018-03-07T06:51:48.803Z,172.50
2018-03-07T06:52:22.481Z,176.18
2018-03-07T06:52:56.143Z,186.27
2018-03-07T06:53:30.578Z,167.18
2018-03-07T06:54:04.265Z,172.13
2018-03-07T06:54:37.963Z,173.90
2018-03-07T06:55:11.630Z,182.00
2018-03-07T06:55:46.085Z,178.12
2018-03-07T06:56:19.773Z,176.45
2018-03-07T06:56:53.442Z,183.98
2018-03-07T06:57:26.922Z,182.37
2018-03-07T06:58:00.590Z,185.05
2018-03-07T06:58:35.023Z,184.27
2018-03-07T06:59:08.711Z,184.00
2018-03-07T06:59:42.787Z,190.05
2018-03-07T07:00:17.222Z,189.57
2018-03-07T07:00:50.905Z,194.30
2018-03-07T07:01:24.781Z,186.00
2018-03-07T07:01:58.475Z,188.50